Time;durP1;ratioP1;P1;durP2;ratioP2;P2;SDS_P1;SDS_P2;PMS_P1;PMS_P2;Temp;Humidity;BMP_temperature;BMP_pressure;BME280_temperature;BME280_humidity;BME280_pressure;Samples;Min_cycle;Max_cycle;Signal;HPM_P1;HPM_P2
2022/12/14 00:00:04;;;;;;;15.90;14.20;;;;;19.50;99411.00;;;;2087019;28;21031;-55
2022/12/14 00:01:08;;;;;;;17.73;14.18;;;;;19.50;99404.00;;;;2069057;28;20321;-55
2022/12/14 00:02:08;;;;;;;17.05;14.40;;;;;19.50;99407.00;;;;2070419;28;20760;-55
2022/12/14 00:03:09;;;;;;;16.70;13.90;;;;;19.50;99402.00;;;;2086700;28;20242;-55
2022/12/14 00:04:09;;;;;;;17.47;14.30;;;;;19.50;99400.00;;;;2086416;28;20212;-54
2022/12/14 00:05:10;;;;;;;16.93;14.43;;;;;19.50;99405.00;;;;2086319;28;20213;-56
2022/12/14 00:06:15;;;;;;;16.13;14.10;;;;;19.40;99402.00;;;;2086195;28;20793;-60
2022/12/14 00:07:16;;;;;;;15.95;14.25;;;;;19.40;99397.00;;;;2082590;28;20216;-54
2022/12/14 00:08:16;;;;;;;14.93;13.30;;;;;19.40;99399.00;;;;2086702;28;20560;-56
2022/12/14 00:09:17;;;;;;;14.97;13.37;;;;;19.40;99390.00;;;;2083923;28;20895;-54
2022/12/14 00:10:17;;;;;;;14.53;13.03;;;;;19.40;99389.00;;;;2067213;28;20214;-55
2022/12/14 00:11:24;;;;;;;16.37;13.50;;;;;19.40;99390.00;;;;2064674;28;20218;-54
2022/12/14 00:12:24;;;;;;;14.07;12.52;;;;;19.40;99387.00;;;;2073988;28;20214;-55
2022/12/14 00:13:24;;;;;;;14.57;12.23;;;;;19.40;99386.00;;;;2080543;28;20296;-55
2022/12/14 00:14:25;;;;;;;14.63;12.73;;;;;19.40;99388.00;;;;2084573;28;20212;-55
2022/12/14 00:15:25;;;;;;;16.27;13.40;;;;;19.40;99392.00;;;;2084058;28;20250;-54
2022/12/14 00:16:28;;;;;;;13.40;12.00;;;;;19.30;99383.00;;;;2077689;28;20456;-53
2022/12/14 00:17:28;;;;;;;15.27;12.68;;;;;19.30;99388.00;;;;2076083;28;20558;-54
2022/12/14 00:18:28;;;;;;;13.77;12.30;;;;;19.40;99389.00;;;;2081199;28;20270;-55
2022/12/14 00:19:29;;;;;;;14.17;12.40;;;;;19.30;99383.00;;;;2086555;28;20221;-54
2022/12/14 00:20:29;;;;;;;14.40;12.87;;;;;19.30;99381.00;;;;2084235;28;20304;-54
2022/12/14 00:21:29;;;;;;;14.73;12.67;;;;;19.30;99379.00;;;;2086793;28;20240;-54
2022/12/14 00:22:30;;;;;;;14.33;12.63;;;;;19.30;99380.00;;;;2085704;28;20228;-55
2022/12/14 00:23:30;;;;;;;14.20;12.70;;;;;19.30;99382.00;;;;2086629;28;20744;-54
2022/12/14 00:24:30;;;;;;;13.10;11.70;;;;;19.30;99368.00;;;;2073973;28;20674;-55
2022/12/14 00:25:31;;;;;;;13.53;12.03;;;;;19.30;99366.00;;;;2078385;28;20228;-54
2022/12/14 00:26:31;;;;;;;13.13;11.83;;;;;19.30;99371.00;;;;2078504;28;20214;-55
2022/12/14 00:27:32;;;;;;;12.73;11.43;;;;;19.30;99369.00;;;;2078650;28;20217;-54
2022/12/14 00:28:33;;;;;;;13.23;11.93;;;;;19.30;99367.00;;;;2075665;28;20275;-54
2022/12/14 00:29:33;;;;;;;13.87;11.90;;;;;19.30;99370.00;;;;2078482;28;24962;-55
2022/12/14 00:30:33;;;;;;;12.80;11.47;;;;;19.30;99360.00;;;;2078836;28;20221;-55
2022/12/14 00:31:35;;;;;;;12.27;11.00;;;;;19.30;99359.00;;;;2075960;28;20222;-55
2022/12/14 00:32:35;;;;;;;12.65;11.35;;;;;19.30;99366.00;;;;2074323;28;20219;-54
2022/12/14 00:33:35;;;;;;;13.10;11.70;;;;;19.20;99367.00;;;;2078166;28;20988;-54
2022/12/14 00:34:36;;;;;;;12.30;11.07;;;;;19.30;99361.00;;;;2075022;28;20577;-54
2022/12/14 00:35:36;;;;;;;11.47;10.37;;;;;19.30;99362.00;;;;2060246;28;20730;-55
2022/12/14 00:36:37;;;;;;;13.30;10.70;;;;;19.20;99361.00;;;;2069068;28;20674;-55
2022/12/14 00:37:37;;;;;;;13.90;10.80;;;;;19.20;99364.00;;;;2077497;28;20550;-55
2022/12/14 00:38:38;;;;;;;14.33;11.80;;;;;19.20;99373.00;;;;2078385;28;20245;-55
2022/12/14 00:39:39;;;;;;;12.97;11.30;;;;;19.20;99366.00;;;;2079486;28;20217;-54
2022/12/14 00:40:39;;;;;;;12.00;10.80;;;;;19.20;99370.00;;;;2075987;28;20464;-54
2022/12/14 00:41:39;;;;;;;11.83;10.20;;;;;19.20;99367.00;;;;2079735;28;20276;-55
2022/12/14 00:42:40;;;;;;;12.53;10.83;;;;;19.20;99369.00;;;;2079085;28;20260;-55
2022/12/14 00:43:41;;;;;;;12.30;11.00;;;;;19.20;99366.00;;;;2077567;28;20237;-54
2022/12/14 00:44:41;;;;;;;11.90;10.70;;;;;19.20;99365.00;;;;2086860;28;20715;-55
2022/12/14 00:45:43;;;;;;;13.20;10.87;;;;;19.20;99362.00;;;;2088380;28;20312;-54
2022/12/14 00:46:43;;;;;;;11.50;9.93;;;;;19.20;99368.00;;;;2071771;28;20487;-54
2022/12/14 00:47:44;;;;;;;13.40;11.50;;;;;19.10;99365.00;;;;2071791;28;20271;-54
2022/12/14 00:48:44;;;;;;;13.70;11.30;;;;;19.20;99367.00;;;;2089025;28;20216;-53
2022/12/14 00:49:45;;;;;;;11.40;10.23;;;;;19.20;99343.00;;;;2089432;28;20266;-54
2022/12/14 00:50:45;;;;;;;11.70;10.50;;;;;19.10;99366.00;;;;2089222;28;20224;-55
2022/12/14 00:51:46;;;;;;;11.43;10.10;;;;;19.10;99359.00;;;;2087770;28;20219;-54
2022/12/14 00:52:46;;;;;;;12.73;11.33;;;;;19.10;99355.00;;;;2087176;28;20273;-54
2022/12/14 00:53:47;;;;;;;10.83;9.70;;;;;19.10;99367.00;;;;2089320;28;20494;-54
2022/12/14 00:54:47;;;;;;;11.13;9.70;;;;;19.10;99353.00;;;;2089362;28;20295;-55
2022/12/14 00:55:48;;;;;;;12.10;10.20;;;;;19.10;99351.00;;;;2088107;28;20213;-54
2022/12/14 00:56:49;;;;;;;11.50;10.30;;;;;19.10;99351.00;;;;2084045;28;20220;-56
2022/12/14 00:57:50;;;;;;;12.70;10.40;;;;;19.10;99353.00;;;;2077813;28;21026;-54
2022/12/14 00:58:51;;;;;;;10.80;9.70;;;;;19.10;99345.00;;;;2081094;28;20225;-55
2022/12/14 00:59:51;;;;;;;10.88;9.75;;;;;19.10;99339.00;;;;2081006;28;20674;-55
2022/12/14 01:01:06;;;;;;;10.90;9.90;;;;;19.10;99340.00;;;;2081262;28;20213;-54
2022/12/14 01:02:07;;;;;;;11.52;10.15;;;;;19.10;99344.00;;;;2080368;28;20354;-54
2022/12/14 01:03:07;;;;;;;12.80;10.37;;;;;19.10;99340.00;;;;2081042;28;20255;-55
2022/12/14 01:04:18;;;;;;;10.67;9.57;;;;;19.10;99330.00;;;;2084436;28;20243;-55
2022/12/14 01:05:18;;;;;;;10.77;9.68;;;;;19.10;99341.00;;;;2080458;28;20296;-54
2022/12/14 01:06:20;;;;;;;10.40;9.37;;;;;19.10;99328.00;;;;2081176;28;20259;-54
2022/12/14 01:07:20;;;;;;;12.38;10.20;;;;;19.10;99329.00;;;;2072121;28;20894;-55
2022/12/14 01:08:21;;;;;;;10.07;9.03;;;;;19.00;99328.00;;;;2072128;28;20222;-54
2022/12/14 01:09:23;;;;;;;10.15;9.10;;;;;19.00;99230.00;;;;2080568;28;20239;-54
2022/12/14 01:10:24;;;;;;;11.57;10.30;;;;;19.00;99327.00;;;;2076559;28;20294;-54
2022/12/14 01:11:24;;;;;;;11.67;10.53;;;;;19.00;99330.00;;;;2080453;28;20213;-55
2022/12/14 01:12:24;;;;;;;10.70;9.30;;;;;19.10;99329.00;;;;2088079;28;20228;-54
2022/12/14 01:13:25;;;;;;;11.10;9.87;;;;;19.00;99323.00;;;;2080489;28;20255;-55
2022/12/14 01:14:26;;;;;;;9.87;8.87;;;;;19.00;99322.00;;;;2080106;28;20245;-55
2022/12/14 01:15:26;;;;;;;10.47;9.37;;;;;19.10;99326.00;;;;2088150;28;20475;-54
2022/12/14 01:16:27;;;;;;;9.97;8.77;;;;;19.10;99323.00;;;;2089437;28;20474;-53
2022/12/14 01:17:27;;;;;;;10.30;9.30;;;;;19.00;99325.00;;;;2078547;28;20221;-54
2022/12/14 01:18:28;;;;;;;10.27;9.17;;;;;19.00;99326.00;;;;2080426;28;20290;-55
2022/12/14 01:19:28;;;;;;;10.93;9.83;;;;;19.00;99319.00;;;;2080294;28;20221;-54
2022/12/14 01:20:29;;;;;;;10.27;9.20;;;;;19.00;99336.00;;;;2080111;28;20771;-55
2022/12/14 01:21:30;;;;;;;10.90;9.80;;;;;19.00;99325.00;;;;2080418;28;20244;-54
2022/12/14 01:22:30;;;;;;;9.37;8.47;;;;;18.90;99334.00;;;;2087007;28;20459;-55
2022/12/14 01:23:30;;;;;;;10.07;9.00;;;;;19.00;99330.00;;;;2079722;28;20255;-55
2022/12/14 01:24:31;;;;;;;9.60;8.70;;;;;19.00;99329.00;;;;2058520;28;20242;-55
2022/12/14 01:25:32;;;;;;;10.57;9.27;;;;;19.00;99323.00;;;;2047528;28;20251;-55
2022/12/14 01:26:37;;;;;;;10.40;9.15;;;;;19.00;99331.00;;;;2056409;28;20220;-55
2022/12/14 01:27:38;;;;;;;10.60;8.93;;;;;19.00;99322.00;;;;2073302;28;20745;-54
2022/12/14 01:28:39;;;;;;;9.43;8.53;;;;;19.00;99326.00;;;;2081229;28;20217;-55
2022/12/14 01:29:43;;;;;;;9.85;8.95;;;;;19.00;99321.00;;;;2077061;28;20857;-54
2022/12/14 01:30:46;;;;;;;9.80;8.82;;;;;18.60;99318.00;;;;2055659;28;20234;-55
2022/12/14 01:31:48;;;;;;;10.52;9.23;;;;;19.00;99317.00;;;;2056217;28;20219;-53
2022/12/14 01:32:49;;;;;;;9.73;8.73;;;;;18.90;99322.00;;;;2071935;28;20631;-55
2022/12/14 01:33:50;;;;;;;10.57;8.70;;;;;18.90;99312.00;;;;2080291;28;20217;-54
2022/12/14 01:34:50;;;;;;;9.80;8.80;;;;;18.90;99325.00;;;;2089168;28;20292;-54
2022/12/14 01:35:51;;;;;;;9.27;8.30;;;;;18.90;99311.00;;;;2089181;28;20592;-54
2022/12/14 01:36:51;;;;;;;10.13;8.27;;;;;18.90;99318.00;;;;2089197;28;20216;-55
2022/12/14 01:37:52;;;;;;;9.30;8.40;;;;;18.90;99325.00;;;;2080780;28;20217;-55
2022/12/14 01:38:57;;;;;;;9.57;8.60;;;;;18.90;99320.00;;;;2081084;28;21000;-54
2022/12/14 01:39:57;;;;;;;9.45;8.45;;;;;18.80;99304.00;;;;2080797;28;20218;-54
2022/12/14 01:40:58;;;;;;;9.70;8.70;;;;;18.90;99308.00;;;;2079449;28;20217;-55
2022/12/14 01:41:58;;;;;;;9.43;8.47;;;;;18.80;99311.00;;;;2079376;28;20218;-54
2022/12/14 01:42:59;;;;;;;9.73;8.73;;;;;18.90;99311.00;;;;2089330;28;20614;-55
2022/12/14 01:44:06;;;;;;;9.97;8.97;;;;;18.90;99311.00;;;;2089269;28;20236;-54
2022/12/14 01:45:20;;;;;;;9.52;8.63;;;;;18.90;99310.00;;;;2089060;28;20212;-55
2022/12/14 01:46:28;;;;;;;9.88;8.88;;;;;18.80;99311.00;;;;2080048;28;20304;-54
2022/12/14 01:47:40;;;;;;;9.05;8.15;;;;;18.90;99320.00;;;;2071299;28;20218;-55
2022/12/14 01:48:40;;;;;;;9.60;8.60;;;;;18.80;99307.00;;;;2079346;28;20956;-54
2022/12/14 01:49:45;;;;;;;9.87;8.97;;;;;18.90;99309.00;;;;2078382;28;20214;-54
2022/12/14 01:50:46;;;;;;;9.10;8.00;;;;;18.90;99314.00;;;;2079826;28;20360;-55
2022/12/14 01:52:04;;;;;;;8.85;8.05;;;;;18.70;99307.00;;;;2069622;28;20297;-54
2022/12/14 01:53:08;;;;;;;8.55;7.65;;;;;18.90;99309.00;;;;2064575;28;20693;-55
2022/12/14 01:54:08;;;;;;;9.45;8.55;;;;;18.80;99317.00;;;;2068847;28;20221;-54
2022/12/14 01:55:12;;;;;;;9.67;8.77;;;;;18.80;99307.00;;;;2070192;28;20215;-55
2022/12/14 01:56:13;;;;;;;9.65;8.65;;;;;18.80;99314.00;;;;2062647;28;20285;-55
2022/12/14 01:57:14;;;;;;;9.27;8.37;;;;;18.80;99293.00;;;;2055487;28;20215;-55
2022/12/14 01:58:17;;;;;;;8.30;7.50;;;;;18.80;99288.00;;;;2070259;28;20217;-54
2022/12/14 01:59:20;;;;;;;9.35;8.45;;;;;18.80;99300.00;;;;2063130;28;21689;-54
2022/12/14 02:00:22;;;;;;;8.15;7.38;;;;;18.80;99308.00;;;;2062884;28;20234;-55
2022/12/14 02:01:22;;;;;;;9.23;7.72;;;;;18.80;99304.00;;;;2076211;28;20670;-53
2022/12/14 02:02:22;;;;;;;9.10;8.17;;;;;18.80;99313.00;;;;2086846;28;20215;-53
2022/12/14 02:03:27;;;;;;;10.57;8.20;;;;;18.80;99299.00;;;;2075453;28;20220;-53
2022/12/14 02:04:27;;;;;;;8.85;7.95;;;;;18.80;99304.00;;;;2053983;28;20702;-53
2022/12/14 02:05:27;;;;;;;8.70;7.90;;;;;18.40;99294.00;;;;2054555;28;20239;-52
2022/12/14 02:06:33;;;;;;;9.93;8.50;;;;;18.80;99297.00;;;;2074824;28;20283;-51
2022/12/14 02:07:34;;;;;;;9.27;8.38;;;;;18.70;99294.00;;;;2070039;28;20210;-52
2022/12/14 02:08:34;;;;;;;10.07;8.10;;;;;18.80;99290.00;;;;2062928;28;20268;-52
2022/12/14 02:09:36;;;;;;;8.87;7.90;;;;;18.80;99286.00;;;;2069942;28;20222;-53
2022/12/14 02:10:37;;;;;;;9.10;7.45;;;;;18.80;99277.00;;;;2068644;28;20225;-52
2022/12/14 02:11:49;;;;;;;9.13;7.65;;;;;18.70;99267.00;;;;2069780;28;20264;-52
2022/12/14 02:13:13;;;;;;;8.27;7.47;;;;;18.70;99273.00;;;;2072233;28;20233;-52
2022/12/14 02:14:16;;;;;;;8.20;7.43;;;;;18.70;99270.00;;;;2067721;28;20221;-53
2022/12/14 02:15:17;;;;;;;8.65;7.75;;;;;18.80;99273.00;;;;2062018;28;20237;-53
2022/12/14 02:16:18;;;;;;;7.95;7.13;;;;;18.70;99274.00;;;;2070457;28;20593;-52
2022/12/14 02:17:18;;;;;;;11.63;7.70;;;;;18.70;99262.00;;;;2077917;28;20245;-52
2022/12/14 02:18:21;;;;;;;8.53;7.67;;;;;18.70;99272.00;;;;2068809;28;20599;-52
2022/12/14 02:19:21;;;;;;;8.13;7.32;;;;;18.70;99268.00;;;;2074260;28;20223;-53
2022/12/14 02:20:21;;;;;;;8.60;7.50;;;;;18.70;99265.00;;;;2079808;28;20224;-53
2022/12/14 02:22:02;;;;;;;7.53;6.80;;;;;18.70;99275.00;;;;2069193;28;20242;-53
2022/12/14 02:23:31;;;;;;;8.82;7.93;;;;;18.80;99274.00;;;;2035107;29;20307;-54
2022/12/14 02:25:05;;;;;;;8.07;7.03;;;;;18.70;99264.00;;;;2023265;29;20835;-55
2022/12/14 02:26:30;;;;;;;9.05;7.00;;;;;18.70;99260.00;;;;2025778;29;20229;-52
2022/12/14 02:27:33;;;;;;;7.85;6.95;;;;;18.70;99262.00;;;;2029690;29;20720;-53
2022/12/14 02:29:01;;;;;;;7.82;7.13;;;;;18.70;99258.00;;;;2040898;28;20295;-54
2022/12/14 02:30:03;;;;;;;8.13;7.43;;;;;18.70;99263.00;;;;2078605;28;20393;-53
2022/12/14 02:31:14;;;;;;;8.25;7.07;;;;;18.70;99244.00;;;;2069362;28;20267;-52
2022/12/14 02:32:48;;;;;;;7.78;7.00;;;;;18.60;99267.00;;;;2053565;28;20227;-53
2022/12/14 02:33:54;;;;;;;9.27;7.55;;;;;18.60;99258.00;;;;2066776;28;20218;-52
2022/12/14 02:35:25;;;;;;;7.18;6.47;;;;;18.60;99257.00;;;;2075670;28;20221;-53
2022/12/14 02:36:40;;;;;;;7.97;7.18;;;;;18.60;99247.00;;;;2078781;28;20216;-53
2022/12/14 02:38:06;;;;;;;7.75;6.95;;;;;18.70;99248.00;;;;2070000;28;20232;-52
2022/12/14 02:39:15;;;;;;;7.50;6.65;;;;;18.70;99243.00;;;;2069045;28;20315;-52
2022/12/14 02:40:32;;;;;;;8.98;7.38;;;;;18.60;99234.00;;;;2080464;28;20213;-53
2022/12/14 02:41:44;;;;;;;7.63;6.82;;;;;18.60;99232.00;;;;2069931;28;20217;-53
2022/12/14 02:43:00;;;;;;;7.38;6.65;;;;;18.60;99212.00;;;;2065305;28;20221;-52
2022/12/14 02:44:11;;;;;;;7.53;6.28;;;;;18.60;99229.00;;;;2077243;28;20217;-53
2022/12/14 02:45:53;;;;;;;6.85;6.15;;;;;18.60;99248.00;;;;2078417;28;20221;-52
2022/12/14 02:46:58;;;;;;;8.65;7.75;;;;;18.60;99227.00;;;;2073992;28;20702;-52
2022/12/14 02:48:00;;;;;;;7.43;6.70;;;;;18.60;99228.00;;;;2065111;28;20223;-52
2022/12/14 02:49:07;;;;;;;7.80;7.05;;;;;18.60;99224.00;;;;2070354;28;20404;-53
2022/12/14 02:50:15;;;;;;;7.60;6.85;;;;;18.60;99229.00;;;;2062113;28;20234;-52
2022/12/14 02:51:21;;;;;;;6.28;5.68;;;;;18.60;99224.00;;;;2064495;28;20576;-53
2022/12/14 02:52:30;;;;;;;8.98;6.93;;;;;18.60;99228.00;;;;2078565;28;20232;-52
2022/12/14 02:53:41;;;;;;;7.95;7.15;;;;;18.50;99213.00;;;;2078348;28;20299;-52
2022/12/14 02:55:14;;;;;;;7.65;6.95;;;;;18.50;99206.00;;;;2080378;28;20224;-53
2022/12/14 02:56:17;;;;;;;7.70;6.90;;;;;18.50;99219.00;;;;2075611;28;20220;-53
2022/12/14 02:57:22;;;;;;;9.93;6.50;;;;;18.50;99214.00;;;;2061716;28;20714;-52
2022/12/14 02:58:34;;;;;;;7.65;6.93;;;;;18.50;99206.00;;;;2062432;28;20278;-53
2022/12/14 02:59:34;;;;;;;7.20;6.50;;;;;18.60;99204.00;;;;2068966;28;20221;-52
2022/12/14 03:00:35;;;;;;;7.03;6.33;;;;;18.50;99223.00;;;;2070511;28;20265;-53
2022/12/14 03:01:36;;;;;;;7.40;6.68;;;;;18.60;99219.00;;;;2069777;28;20222;-53
2022/12/14 03:02:38;;;;;;;7.33;6.17;;;;;18.60;99215.00;;;;2051907;28;20245;-52
2022/12/14 03:03:39;;;;;;;7.40;6.70;;;;;18.50;99213.00;;;;2060671;28;20222;-53
2022/12/14 03:04:50;;;;;;;7.35;6.63;;;;;18.50;99222.00;;;;2070469;28;20221;-53
2022/12/14 03:05:58;;;;;;;8.10;7.30;;;;;18.50;99216.00;;;;2068946;28;20741;-52
2022/12/14 03:07:01;;;;;;;7.20;6.20;;;;;18.50;99209.00;;;;2076573;28;20221;-53
2022/12/14 03:08:04;;;;;;;7.30;6.40;;;;;18.50;99203.00;;;;2069976;28;20218;-52
2022/12/14 03:09:07;;;;;;;6.75;6.15;;;;;18.50;99193.00;;;;2062990;28;20207;-52
2022/12/14 03:10:22;;;;;;;7.53;6.82;;;;;18.50;99204.00;;;;2069173;28;20312;-51
2022/12/14 03:11:50;;;;;;;6.50;5.88;;;;;18.50;99196.00;;;;2079812;28;20986;-53
2022/12/14 03:12:55;;;;;;;7.55;6.25;;;;;18.50;99200.00;;;;2060987;28;20217;-52
2022/12/14 03:14:08;;;;;;;7.13;6.43;;;;;18.50;99201.00;;;;2073951;28;20571;-53
2022/12/14 03:15:10;;;;;;;7.57;6.78;;;;;18.40;99158.00;;;;2079662;28;20939;-53
2022/12/14 03:16:12;;;;;;;6.32;5.72;;;;;18.40;99196.00;;;;2076455;28;21711;-56
2022/12/14 03:17:15;;;;;;;9.23;5.80;;;;;18.50;99179.00;;;;2070502;28;20222;-52
2022/12/14 03:18:16;;;;;;;7.05;6.35;;;;;18.50;99195.00;;;;2077934;28;20231;-52
2022/12/14 03:19:19;;;;;;;6.53;5.93;;;;;18.40;99047.00;;;;2062287;28;20241;-51
2022/12/14 03:20:21;;;;;;;7.05;6.35;;;;;18.40;99190.00;;;;2070443;28;20461;-52
2022/12/14 03:21:39;;;;;;;6.43;5.82;;;;;18.40;99183.00;;;;2078308;28;20234;-52
2022/12/14 03:22:44;;;;;;;6.47;5.85;;;;;18.50;99182.00;;;;2066057;28;20217;-52
2022/12/14 03:23:47;;;;;;;6.82;6.05;;;;;18.50;99179.00;;;;2071495;28;20222;-52
2022/12/14 03:24:49;;;;;;;6.20;5.57;;;;;18.40;99182.00;;;;2078699;28;20221;-52
2022/12/14 03:25:58;;;;;;;6.55;5.95;;;;;18.40;99193.00;;;;2078106;28;20362;-52
2022/12/14 03:27:01;;;;;;;6.57;5.90;;;;;18.40;99190.00;;;;2069639;28;20218;-53
2022/12/14 03:28:12;;;;;;;6.78;6.00;;;;;18.40;99186.00;;;;2052695;28;20286;-53
2022/12/14 03:29:32;;;;;;;6.25;5.65;;;;;18.40;99188.00;;;;2064487;28;20230;-53
2022/12/14 03:30:32;;;;;;;6.53;5.93;;;;;18.40;99195.00;;;;2067658;28;20217;-52
2022/12/14 03:31:33;;;;;;;6.57;5.83;;;;;18.40;99183.00;;;;2079678;28;20378;-52
2022/12/14 03:32:34;;;;;;;6.97;5.65;;;;;18.40;99173.00;;;;2086169;28;20559;-53
2022/12/14 03:33:35;;;;;;;6.70;5.93;;;;;18.40;99182.00;;;;2077394;28;20304;-52
2022/12/14 03:34:39;;;;;;;6.47;5.88;;;;;18.40;99175.00;;;;2069613;28;20222;-52
2022/12/14 03:36:06;;;;;;;6.00;5.50;;;;;18.40;99186.00;;;;2077744;28;20279;-53
2022/12/14 03:37:09;;;;;;;6.93;6.22;;;;;18.40;99175.00;;;;2068604;28;20251;-52
2022/12/14 03:38:37;;;;;;;6.30;5.75;;;;;18.40;99066.00;;;;2077295;28;20671;-53
2022/12/14 03:39:38;;;;;;;6.50;5.90;;;;;18.30;99168.00;;;;2076244;28;20217;-52
2022/12/14 03:40:49;;;;;;;5.73;5.20;;;;;18.40;99171.00;;;;2072905;28;20247;-53
2022/12/14 03:42:17;;;;;;;5.90;5.30;;;;;18.40;99146.00;;;;2078010;28;20212;-53
2022/12/14 03:43:34;;;;;;;6.22;4.97;;;;;18.40;99170.00;;;;2069508;28;20221;-52
2022/12/14 03:44:44;;;;;;;5.82;5.30;;;;;18.30;99168.00;;;;2059078;28;20217;-53
2022/12/14 03:46:08;;;;;;;6.50;5.90;;;;;18.30;99166.00;;;;2072341;28;20865;-54
2022/12/14 03:47:17;;;;;;;7.80;5.65;;;;;18.30;99170.00;;;;2073205;28;20224;-52
2022/12/14 03:48:30;;;;;;;6.32;5.70;;;;;18.40;99165.00;;;;2074223;28;20213;-53
2022/12/14 03:49:39;;;;;;;6.65;6.05;;;;;18.40;99165.00;;;;2077035;28;20220;-53
2022/12/14 03:50:52;;;;;;;6.28;5.50;;;;;18.30;99170.00;;;;2079288;28;20217;-52
2022/12/14 03:52:24;;;;;;;6.35;5.72;;;;;18.40;99162.00;;;;2083051;28;20212;-52
2022/12/14 03:53:35;;;;;;;6.53;5.82;;;;;18.40;99154.00;;;;2078703;28;20216;-53
2022/12/14 03:54:53;;;;;;;5.93;5.32;;;;;18.40;99163.00;;;;2069976;28;20207;-53
2022/12/14 03:56:02;;;;;;;6.20;5.60;;;;;18.30;99166.00;;;;2057804;28;20252;-52
2022/12/14 03:57:37;;;;;;;6.53;5.60;;;;;18.30;99163.00;;;;2071522;28;20646;-52
2022/12/14 03:58:38;;;;;;;6.05;5.43;;;;;18.30;99172.00;;;;2069678;28;20223;-53
2022/12/14 03:59:56;;;;;;;6.17;5.57;;;;;18.30;99162.00;;;;2070142;28;20224;-53
2022/12/14 04:01:30;;;;;;;6.25;5.65;;;;;18.30;99157.00;;;;2074097;28;20464;-52
2022/12/14 04:02:34;;;;;;;5.95;5.35;;;;;18.30;99161.00;;;;2069069;28;20759;-53
2022/12/14 04:03:59;;;;;;;5.95;5.35;;;;;18.30;99155.00;;;;2054253;28;20229;-52
2022/12/14 04:05:02;;;;;;;5.72;4.95;;;;;18.30;99156.00;;;;2068551;28;20220;-53
2022/12/14 04:06:06;;;;;;;5.88;5.30;;;;;18.30;99160.00;;;;2069776;28;20236;-52
2022/12/14 04:07:36;;;;;;;6.10;5.50;;;;;18.20;99153.00;;;;2061463;28;20253;-52
2022/12/14 04:08:47;;;;;;;5.15;4.65;;;;;18.30;99169.00;;;;2064687;28;20258;-53
2022/12/14 04:09:50;;;;;;;5.45;4.95;;;;;18.30;99164.00;;;;2077092;28;20209;-52
2022/12/14 04:19:12;;;;;;;5.35;4.82;;;;;18.20;99166.00;;;;2066491;28;20225;-52
2022/12/14 04:20:21;;;;;;;5.60;5.10;;;;;18.30;99164.00;;;;2066908;28;20229;-53
2022/12/14 04:21:38;;;;;;;5.93;5.32;;;;;18.20;99162.00;;;;2052926;28;20223;-53
2022/12/14 04:22:42;;;;;;;6.18;5.57;;;;;18.30;99161.00;;;;2066098;28;20235;-53
2022/12/14 04:26:37;;;;;;;5.10;4.60;;;;;18.20;99159.00;;;;2068886;28;20244;-52
2022/12/14 04:27:38;;;;;;;5.25;4.78;;;;;18.20;99158.00;;;;2058481;28;20630;-52
2022/12/14 04:30:20;;;;;;;6.03;5.43;;;;;18.20;99154.00;;;;2053744;28;20461;-52
2022/12/14 04:31:22;;;;;;;5.37;4.87;;;;;18.20;99163.00;;;;2059011;28;20669;-53
2022/12/14 04:32:37;;;;;;;6.68;5.70;;;;;18.20;99154.00;;;;2060339;28;20229;-53
2022/12/14 04:33:45;;;;;;;5.07;4.57;;;;;18.20;99166.00;;;;2062653;28;20222;-52
2022/12/14 04:34:49;;;;;;;5.22;4.72;;;;;18.20;99159.00;;;;2069518;28;20266;-53
2022/12/14 04:35:50;;;;;;;6.18;5.25;;;;;18.20;99054.00;;;;2076909;28;20228;-53
2022/12/14 04:36:54;;;;;;;5.53;4.93;;;;;18.20;99155.00;;;;2055077;28;20218;-52
2022/12/14 04:38:01;;;;;;;5.20;4.70;;;;;18.20;99140.00;;;;2053745;28;20305;-52
2022/12/14 04:39:07;;;;;;;4.95;4.55;;;;;18.20;99154.00;;;;2053500;28;20304;-53
2022/12/14 04:40:11;;;;;;;5.38;4.88;;;;;18.20;99151.00;;;;2062981;28;20221;-52
2022/12/14 04:41:13;;;;;;;6.70;5.60;;;;;18.20;99151.00;;;;2069371;28;20612;-53
2022/12/14 04:42:14;;;;;;;5.40;4.90;;;;;18.20;99155.00;;;;2068513;28;20300;-53
2022/12/14 04:43:17;;;;;;;6.22;5.63;;;;;18.20;99147.00;;;;2069721;28;20295;-52
2022/12/14 04:44:45;;;;;;;5.60;5.00;;;;;18.20;99147.00;;;;2061656;28;20229;-53
2022/12/14 04:45:51;;;;;;;5.05;4.55;;;;;18.20;99146.00;;;;2054061;28;20229;-52
2022/12/14 04:46:52;;;;;;;5.63;5.13;;;;;18.20;99150.00;;;;2054906;28;20222;-52
2022/12/14 04:48:18;;;;;;;5.80;5.30;;;;;18.10;99151.00;;;;2061677;28;20221;-53
2022/12/14 04:49:24;;;;;;;6.60;4.95;;;;;18.10;99153.00;;;;2062833;28;20459;-53
2022/12/14 04:50:29;;;;;;;5.03;4.53;;;;;18.10;99147.00;;;;2068410;28;20308;-53
2022/12/14 04:51:30;;;;;;;5.22;4.53;;;;;18.20;99151.00;;;;2062399;28;20295;-53
2022/12/14 04:52:31;;;;;;;5.63;5.13;;;;;18.20;99146.00;;;;2068697;28;20217;-53
2022/12/14 04:53:32;;;;;;;5.57;5.07;;;;;18.10;99151.00;;;;2069924;28;20325;-53
2022/12/14 04:54:46;;;;;;;5.60;4.73;;;;;18.10;99152.00;;;;2050640;28;20229;-52
2022/12/14 04:55:51;;;;;;;5.40;4.90;;;;;18.10;99144.00;;;;2070725;28;20826;-53
2022/12/14 04:56:58;;;;;;;5.57;4.95;;;;;18.10;99145.00;;;;2062186;28;20737;-52
2022/12/14 04:58:18;;;;;;;5.38;4.85;;;;;18.10;99137.00;;;;2044858;28;20215;-53
2022/12/14 04:59:19;;;;;;;6.38;5.25;;;;;18.10;99140.00;;;;2061173;28;20222;-53
2022/12/14 05:00:21;;;;;;;5.43;4.80;;;;;18.10;99143.00;;;;2061647;28;20241;-52
2022/12/14 05:01:43;;;;;;;4.78;4.28;;;;;18.10;99130.00;;;;2046139;28;20271;-52
2022/12/14 05:03:11;;;;;;;6.63;4.40;;;;;18.10;99134.00;;;;2056624;28;20243;-52
2022/12/14 05:04:20;;;;;;;5.53;4.97;;;;;18.10;99131.00;;;;2078021;28;20232;-52
2022/12/14 05:05:41;;;;;;;5.30;4.80;;;;;18.10;99131.00;;;;2078407;28;20221;-52
2022/12/14 05:07:10;;;;;;;5.30;4.80;;;;;18.10;99133.00;;;;2069729;28;20213;-53
2022/12/14 05:08:21;;;;;;;4.82;4.32;;;;;18.10;99136.00;;;;2066031;28;20214;-53
2022/12/14 05:09:28;;;;;;;5.65;4.97;;;;;18.10;99126.00;;;;2073660;28;20215;-52
2022/12/14 05:10:38;;;;;;;4.40;3.90;;;;;18.00;99139.00;;;;2067824;28;20295;-53
2022/12/14 05:11:40;;;;;;;5.72;5.22;;;;;18.10;99134.00;;;;2062555;28;20224;-52
2022/12/14 05:12:46;;;;;;;5.03;4.32;;;;;18.10;99123.00;;;;2077031;28;20245;-53
2022/12/14 05:13:49;;;;;;;6.20;4.82;;;;;18.10;99124.00;;;;2069419;28;20218;-52
2022/12/14 05:15:09;;;;;;;4.85;4.25;;;;;18.00;99122.00;;;;2050490;28;20230;-54
2022/12/14 05:16:10;;;;;;;5.20;4.80;;;;;18.00;99131.00;;;;2050396;28;20706;-53
2022/12/14 05:17:10;;;;;;;5.17;4.60;;;;;18.10;99125.00;;;;2052919;28;20218;-53
2022/12/14 05:18:11;;;;;;;5.77;4.60;;;;;18.10;99127.00;;;;2058702;28;20612;-54
2022/12/14 05:19:12;;;;;;;5.23;4.73;;;;;18.00;99127.00;;;;2068068;28;20744;-54
2022/12/14 05:20:17;;;;;;;5.30;4.73;;;;;18.00;99127.00;;;;2060863;28;20811;-54
2022/12/14 05:22:37;;;;;;;6.35;4.72;;;;;18.10;99116.00;;;;2062052;28;20702;-54
2022/12/14 05:23:37;;;;;;;4.85;4.45;;;;;18.00;99123.00;;;;2085984;28;20224;-54
2022/12/14 05:24:38;;;;;;;5.10;4.60;;;;;18.00;99118.00;;;;2085871;28;20220;-54
2022/12/14 05:25:38;;;;;;;5.07;4.33;;;;;18.10;99116.00;;;;2085895;28;20230;-53
2022/12/14 05:26:39;;;;;;;4.80;4.40;;;;;18.00;99109.00;;;;2087300;28;20224;-53
2022/12/14 05:27:39;;;;;;;5.13;4.63;;;;;18.00;99112.00;;;;2086780;28;20303;-54
2022/12/14 05:28:39;;;;;;;5.30;4.80;;;;;18.00;99110.00;;;;2087902;28;20213;-54
2022/12/14 05:29:40;;;;;;;5.50;5.00;;;;;18.00;99100.00;;;;2079192;28;20299;-53
2022/12/14 05:30:40;;;;;;;5.30;4.80;;;;;18.00;99104.00;;;;2078246;28;20220;-54
2022/12/14 05:31:40;;;;;;;5.00;4.50;;;;;18.00;99108.00;;;;2069454;28;20228;-54
2022/12/14 05:32:42;;;;;;;5.17;4.63;;;;;18.10;99096.00;;;;2061544;28;20222;-54
2022/12/14 05:33:43;;;;;;;5.05;4.43;;;;;18.00;99102.00;;;;2054488;28;20622;-53
2022/12/14 05:34:44;;;;;;;5.40;4.70;;;;;18.00;99090.00;;;;2070794;28;20239;-54
2022/12/14 05:35:44;;;;;;;5.93;4.85;;;;;18.00;99104.00;;;;2079234;28;20585;-53
2022/12/14 05:36:45;;;;;;;4.80;4.40;;;;;18.00;99103.00;;;;2079270;28;20217;-53
2022/12/14 05:37:48;;;;;;;5.20;4.70;;;;;18.00;99106.00;;;;2079843;28;20669;-52
2022/12/14 05:38:48;;;;;;;5.60;5.00;;;;;18.00;99099.00;;;;2070822;28;20237;-54
2022/12/14 05:39:49;;;;;;;5.50;5.00;;;;;18.00;99100.00;;;;2070792;28;20756;-54
2022/12/14 05:40:49;;;;;;;5.05;4.55;;;;;18.00;99095.00;;;;2079629;28;20222;-53
2022/12/14 05:41:52;;;;;;;7.70;4.90;;;;;18.00;99094.00;;;;2078994;28;20210;-53